Terminal Aerodrome Forecast
Issued by NWS Rapid City, SD

Home | Current Version | Previous Version | Graphics & Text | Print | Product List | Glossary On
Versions: 1 2 3 4 5 6 7 8 9 10 11 12 13 14 15 16 17 18 19 20 21 22
441
FTUS43 KUNR 261528 AAB
TAFRAP
TAF AMD
KRAP 261528Z 2615/2712 13007KT P6SM SCT004 BKN025 OVC100
      TEMPO 2615/2616 BKN004
     FM261700 16010KT P6SM SCT010 SCT100
     FM270100 18004KT P6SM SCT060 BKN150
     FM270600 24004KT P6SM SCT250=

USA.gov is the U.S. government's official web portal to all federal, state and local government web resources and services.